createdAt,value
2024-04-18T00:01:08.961Z,690.00
2024-04-18T00:16:08.930Z,683.00
2024-04-18T00:31:09.321Z,682.00
2024-04-18T00:46:09.767Z,697.00
2024-04-18T01:01:10.219Z,701.00
2024-04-18T01:16:10.733Z,691.00
2024-04-18T01:31:11.105Z,681.00
2024-04-18T01:46:11.504Z,687.00
2024-04-18T02:01:12.061Z,686.00
2024-04-18T02:16:12.526Z,690.00
2024-04-18T02:31:13.023Z,692.00
2024-04-18T02:46:13.804Z,688.00
2024-04-18T03:01:14.083Z,700.00
2024-04-18T03:16:14.647Z,691.00
2024-04-18T03:31:15.583Z,688.00
2024-04-18T03:46:15.987Z,674.00
2024-04-18T04:01:16.498Z,678.00
2024-04-18T04:16:16.780Z,679.00
2024-04-18T04:31:17.680Z,680.00
2024-04-18T04:46:18.454Z,673.00
2024-04-18T05:01:19.406Z,664.00
2024-04-18T05:16:19.607Z,655.00
2024-04-18T05:31:20.343Z,657.00
2024-04-18T05:46:21.119Z,647.00
2024-04-18T06:01:21.956Z,642.00
2024-04-18T06:16:22.109Z,655.00
2024-04-18T06:31:22.819Z,655.00
2024-04-18T06:46:23.504Z,645.00
2024-04-18T07:01:24.242Z,646.00
2024-04-18T07:16:24.854Z,646.00
2024-04-18T07:31:25.608Z,630.00
2024-04-18T07:46:26.214Z,647.00
2024-04-18T08:01:28.353Z,628.00
2024-04-18T08:16:27.660Z,633.00
2024-04-18T08:31:28.363Z,627.00
2024-04-18T08:46:28.946Z,639.00
2024-04-18T09:01:29.530Z,629.00
2024-04-18T09:16:30.074Z,634.00
2024-04-18T09:31:37.954Z,640.00
2024-04-18T09:46:32.472Z,653.00
2024-04-18T10:01:31.727Z,635.00
2024-04-18T10:16:32.623Z,658.00
2024-04-18T10:31:33.129Z,670.00
2024-04-18T10:46:33.432Z,669.00
2024-04-18T11:01:33.885Z,662.00
2024-04-18T11:16:34.335Z,663.00
2024-04-18T11:31:35.351Z,672.00
2024-04-18T11:46:36.296Z,681.00
